sensor_id;sensor_type;location;lat;lon;timestamp;P1;durP1;ratioP1;P2;durP2;ratioP2
44646;SDS011;56315;-33.902;151.160;2022-07-25T00:01:52;4.45;;;3.42;;
44646;SDS011;56315;-33.902;151.160;2022-07-25T00:04:20;4.72;;;2.53;;
44646;SDS011;56315;-33.902;151.160;2022-07-25T00:06:48;4.55;;;3.00;;
44646;SDS011;56315;-33.902;151.160;2022-07-25T00:09:15;3.92;;;2.75;;
44646;SDS011;56315;-33.902;151.160;2022-07-25T00:11:43;5.65;;;2.35;;
44646;SDS011;56315;-33.902;151.160;2022-07-25T00:14:10;3.95;;;3.10;;
44646;SDS011;56315;-33.902;151.160;2022-07-25T00:16:38;5.63;;;2.95;;
44646;SDS011;56315;-33.902;151.160;2022-07-25T00:19:05;5.95;;;2.67;;
44646;SDS011;56315;-33.902;151.160;2022-07-25T00:21:32;5.05;;;2.55;;
44646;SDS011;56315;-33.902;151.160;2022-07-25T00:24:00;4.82;;;3.30;;
44646;SDS011;56315;-33.902;151.160;2022-07-25T00:26:27;7.45;;;3.75;;
44646;SDS011;56315;-33.902;151.160;2022-07-25T00:28:54;4.45;;;3.95;;
44646;SDS011;56315;-33.902;151.160;2022-07-25T00:31:22;3.70;;;2.78;;
44646;SDS011;56315;-33.902;151.160;2022-07-25T00:33:49;4.43;;;3.28;;
44646;SDS011;56315;-33.902;151.160;2022-07-25T00:36:16;5.88;;;4.10;;
44646;SDS011;56315;-33.902;151.160;2022-07-25T00:38:44;6.25;;;4.63;;
44646;SDS011;56315;-33.902;151.160;2022-07-25T00:41:11;7.72;;;4.82;;
44646;SDS011;56315;-33.902;151.160;2022-07-25T00:43:45;6.30;;;4.13;;
44646;SDS011;56315;-33.902;151.160;2022-07-25T00:46:13;5.95;;;5.00;;
44646;SDS011;56315;-33.902;151.160;2022-07-25T00:48:42;8.80;;;4.40;;
44646;SDS011;56315;-33.902;151.160;2022-07-25T00:51:10;7.18;;;4.68;;
44646;SDS011;56315;-33.902;151.160;2022-07-25T00:53:37;5.68;;;4.45;;
44646;SDS011;56315;-33.902;151.160;2022-07-25T00:56:05;5.68;;;4.18;;
44646;SDS011;56315;-33.902;151.160;2022-07-25T00:58:33;6.13;;;4.30;;
44646;SDS011;56315;-33.902;151.160;2022-07-25T01:01:01;7.03;;;4.35;;
44646;SDS011;56315;-33.902;151.160;2022-07-25T01:03:29;6.55;;;5.07;;
44646;SDS011;56315;-33.902;151.160;2022-07-25T01:05:56;6.60;;;5.05;;
44646;SDS011;56315;-33.902;151.160;2022-07-25T01:08:23;6.10;;;4.78;;
44646;SDS011;56315;-33.902;151.160;2022-07-25T01:10:51;8.27;;;6.15;;
44646;SDS011;56315;-33.902;151.160;2022-07-25T01:13:19;7.57;;;4.82;;
44646;SDS011;56315;-33.902;151.160;2022-07-25T01:15:46;8.00;;;5.32;;
44646;SDS011;56315;-33.902;151.160;2022-07-25T01:18:13;8.98;;;6.60;;
44646;SDS011;56315;-33.902;151.160;2022-07-25T01:20:41;8.88;;;5.90;;
44646;SDS011;56315;-33.902;151.160;2022-07-25T01:23:08;11.45;;;5.55;;
44646;SDS011;56315;-33.902;151.160;2022-07-25T01:25:35;8.52;;;6.53;;
44646;SDS011;56315;-33.902;151.160;2022-07-25T01:28:03;6.85;;;5.78;;
44646;SDS011;56315;-33.902;151.160;2022-07-25T01:30:30;8.57;;;5.85;;
44646;SDS011;56315;-33.902;151.160;2022-07-25T01:32:58;7.30;;;6.50;;
44646;SDS011;56315;-33.902;151.160;2022-07-25T01:35:26;7.28;;;5.55;;
44646;SDS011;56315;-33.902;151.160;2022-07-25T01:37:54;7.93;;;6.45;;
44646;SDS011;56315;-33.902;151.160;2022-07-25T01:40:21;10.18;;;8.27;;
44646;SDS011;56315;-33.902;151.160;2022-07-25T01:42:49;11.93;;;6.80;;
44646;SDS011;56315;-33.902;151.160;2022-07-25T01:45:16;9.73;;;7.28;;
44646;SDS011;56315;-33.902;151.160;2022-07-25T01:47:44;13.10;;;7.47;;
44646;SDS011;56315;-33.902;151.160;2022-07-25T01:50:13;9.63;;;5.63;;
44646;SDS011;56315;-33.902;151.160;2022-07-25T01:52:41;7.93;;;5.03;;
44646;SDS011;56315;-33.902;151.160;2022-07-25T01:55:09;5.15;;;3.47;;
44646;SDS011;56315;-33.902;151.160;2022-07-25T01:57:36;5.20;;;3.67;;
44646;SDS011;56315;-33.902;151.160;2022-07-25T02:00:06;6.32;;;4.22;;
44646;SDS011;56315;-33.902;151.160;2022-07-25T02:02:36;5.13;;;3.50;;
44646;SDS011;56315;-33.902;151.160;2022-07-25T02:05:03;4.20;;;3.15;;
44646;SDS011;56315;-33.902;151.160;2022-07-25T02:07:32;5.55;;;3.08;;
44646;SDS011;56315;-33.902;151.160;2022-07-25T02:09:59;7.70;;;2.72;;
44646;SDS011;56315;-33.902;151.160;2022-07-25T02:12:27;7.68;;;3.80;;
44646;SDS011;56315;-33.902;151.160;2022-07-25T02:14:54;5.22;;;2.85;;
44646;SDS011;56315;-33.902;151.160;2022-07-25T02:17:22;7.38;;;3.30;;
44646;SDS011;56315;-33.902;151.160;2022-07-25T02:19:49;6.30;;;3.33;;
44646;SDS011;56315;-33.902;151.160;2022-07-25T02:22:16;5.40;;;3.08;;
44646;SDS011;56315;-33.902;151.160;2022-07-25T02:24:44;6.50;;;3.50;;
44646;SDS011;56315;-33.902;151.160;2022-07-25T02:27:11;5.53;;;2.90;;
44646;SDS011;56315;-33.902;151.160;2022-07-25T02:29:38;6.65;;;3.22;;
44646;SDS011;56315;-33.902;151.160;2022-07-25T02:32:06;5.72;;;2.78;;
44646;SDS011;56315;-33.902;151.160;2022-07-25T02:34:33;5.25;;;2.70;;
44646;SDS011;56315;-33.902;151.160;2022-07-25T02:37:01;6.22;;;2.42;;
44646;SDS011;56315;-33.902;151.160;2022-07-25T02:39:28;2.63;;;1.75;;
44646;SDS011;56315;-33.902;151.160;2022-07-25T02:41:55;4.40;;;1.67;;
44646;SDS011;56315;-33.902;151.160;2022-07-25T02:44:24;3.65;;;1.52;;
44646;SDS011;56315;-33.902;151.160;2022-07-25T02:46:52;2.53;;;1.20;;
44646;SDS011;56315;-33.902;151.160;2022-07-25T02:49:19;1.85;;;1.00;;
44646;SDS011;56315;-33.902;151.160;2022-07-25T02:51:47;2.17;;;1.30;;
44646;SDS011;56315;-33.902;151.160;2022-07-25T02:54:14;2.13;;;1.38;;
44646;SDS011;56315;-33.902;151.160;2022-07-25T02:56:41;5.63;;;1.30;;
44646;SDS011;56315;-33.902;151.160;2022-07-25T02:59:09;1.80;;;1.05;;
44646;SDS011;56315;-33.902;151.160;2022-07-25T03:01:36;3.53;;;1.30;;
44646;SDS011;56315;-33.902;151.160;2022-07-25T03:04:03;2.60;;;1.05;;
44646;SDS011;56315;-33.902;151.160;2022-07-25T03:06:31;2.63;;;1.52;;
44646;SDS011;56315;-33.902;151.160;2022-07-25T03:08:58;1.92;;;1.15;;
44646;SDS011;56315;-33.902;151.160;2022-07-25T03:11:25;2.80;;;1.10;;
44646;SDS011;56315;-33.902;151.160;2022-07-25T03:13:53;2.25;;;1.17;;
44646;SDS011;56315;-33.902;151.160;2022-07-25T03:16:20;2.63;;;1.38;;
44646;SDS011;56315;-33.902;151.160;2022-07-25T03:18:47;2.08;;;1.35;;
44646;SDS011;56315;-33.902;151.160;2022-07-25T03:21:15;2.22;;;1.00;;
44646;SDS011;56315;-33.902;151.160;2022-07-25T03:23:43;3.05;;;1.35;;
44646;SDS011;56315;-33.902;151.160;2022-07-25T03:26:10;1.77;;;1.25;;
44646;SDS011;56315;-33.902;151.160;2022-07-25T03:28:37;3.92;;;1.25;;
44646;SDS011;56315;-33.902;151.160;2022-07-25T03:31:05;4.47;;;1.48;;
44646;SDS011;56315;-33.902;151.160;2022-07-25T03:33:32;2.38;;;1.30;;
44646;SDS011;56315;-33.902;151.160;2022-07-25T03:35:59;2.70;;;1.17;;
44646;SDS011;56315;-33.902;151.160;2022-07-25T03:38:27;2.67;;;1.35;;
44646;SDS011;56315;-33.902;151.160;2022-07-25T03:40:54;4.38;;;1.35;;
44646;SDS011;56315;-33.902;151.160;2022-07-25T03:43:21;6.63;;;1.65;;
44646;SDS011;56315;-33.902;151.160;2022-07-25T03:45:49;3.13;;;1.40;;
44646;SDS011;56315;-33.902;151.160;2022-07-25T03:48:17;3.90;;;1.50;;
44646;SDS011;56315;-33.902;151.160;2022-07-25T03:50:44;3.58;;;1.55;;
44646;SDS011;56315;-33.902;151.160;2022-07-25T03:53:12;4.82;;;1.70;;
44646;SDS011;56315;-33.902;151.160;2022-07-25T03:55:39;5.65;;;1.25;;
44646;SDS011;56315;-33.902;151.160;2022-07-25T03:58:07;4.72;;;1.48;;
44646;SDS011;56315;-33.902;151.160;2022-07-25T04:00:34;3.33;;;1.50;;
44646;SDS011;56315;-33.902;151.160;2022-07-25T04:03:01;6.78;;;1.55;;
44646;SDS011;56315;-33.902;151.160;2022-07-25T04:05:29;5.70;;;1.63;;
44646;SDS011;56315;-33.902;151.160;2022-07-25T04:07:56;5.60;;;1.73;;
44646;SDS011;56315;-33.902;151.160;2022-07-25T04:10:24;8.07;;;1.98;;
44646;SDS011;56315;-33.902;151.160;2022-07-25T04:12:51;6.07;;;2.25;;
44646;SDS011;56315;-33.902;151.160;2022-07-25T04:15:18;8.05;;;2.05;;
44646;SDS011;56315;-33.902;151.160;2022-07-25T04:17:46;6.80;;;1.98;;
44646;SDS011;56315;-33.902;151.160;2022-07-25T04:20:13;7.88;;;2.00;;
44646;SDS011;56315;-33.902;151.160;2022-07-25T04:22:40;6.05;;;1.98;;
44646;SDS011;56315;-33.902;151.160;2022-07-25T04:25:08;6.20;;;2.50;;
44646;SDS011;56315;-33.902;151.160;2022-07-25T04:27:35;5.63;;;1.48;;
44646;SDS011;56315;-33.902;151.160;2022-07-25T04:30:03;5.90;;;1.40;;
44646;SDS011;56315;-33.902;151.160;2022-07-25T04:32:30;6.82;;;1.20;;
44646;SDS011;56315;-33.902;151.160;2022-07-25T04:34:57;4.20;;;1.48;;
44646;SDS011;56315;-33.902;151.160;2022-07-25T04:37:25;4.40;;;1.20;;
44646;SDS011;56315;-33.902;151.160;2022-07-25T04:39:52;4.90;;;1.58;;
44646;SDS011;56315;-33.902;151.160;2022-07-25T04:42:19;5.95;;;1.25;;
44646;SDS011;56315;-33.902;151.160;2022-07-25T04:44:47;2.90;;;1.20;;
44646;SDS011;56315;-33.902;151.160;2022-07-25T04:47:14;4.63;;;1.05;;
44646;SDS011;56315;-33.902;151.160;2022-07-25T04:49:41;5.22;;;1.60;;
44646;SDS011;56315;-33.902;151.160;2022-07-25T04:52:09;6.45;;;1.40;;
44646;SDS011;56315;-33.902;151.160;2022-07-25T04:54:36;4.85;;;1.58;;
44646;SDS011;56315;-33.902;151.160;2022-07-25T04:57:03;6.35;;;1.23;;
44646;SDS011;56315;-33.902;151.160;2022-07-25T04:59:33;8.02;;;1.67;;
44646;SDS011;56315;-33.902;151.160;2022-07-25T05:02:01;7.82;;;1.80;;
44646;SDS011;56315;-33.902;151.160;2022-07-25T05:04:28;6.40;;;1.48;;
44646;SDS011;56315;-33.902;151.160;2022-07-25T05:06:55;4.20;;;1.50;;
44646;SDS011;56315;-33.902;151.160;2022-07-25T05:09:23;6.05;;;1.98;;
44646;SDS011;56315;-33.902;151.160;2022-07-25T05:11:52;14.43;;;1.95;;
44646;SDS011;56315;-33.902;151.160;2022-07-25T05:14:19;7.18;;;1.20;;
44646;SDS011;56315;-33.902;151.160;2022-07-25T05:16:47;7.10;;;1.40;;
44646;SDS011;56315;-33.902;151.160;2022-07-25T05:19:14;4.82;;;1.20;;
44646;SDS011;56315;-33.902;151.160;2022-07-25T05:21:42;10.73;;;1.85;;
44646;SDS011;56315;-33.902;151.160;2022-07-25T05:24:09;4.75;;;1.25;;
44646;SDS011;56315;-33.902;151.160;2022-07-25T05:26:38;6.07;;;1.15;;
44646;SDS011;56315;-33.902;151.160;2022-07-25T05:29:05;5.88;;;1.30;;
44646;SDS011;56315;-33.902;151.160;2022-07-25T05:31:32;6.93;;;1.27;;
44646;SDS011;56315;-33.902;151.160;2022-07-25T05:34:00;5.60;;;1.40;;
44646;SDS011;56315;-33.902;151.160;2022-07-25T05:36:27;5.75;;;1.35;;
44646;SDS011;56315;-33.902;151.160;2022-07-25T05:38:55;6.43;;;1.30;;
44646;SDS011;56315;-33.902;151.160;2022-07-25T05:41:22;9.52;;;1.55;;
44646;SDS011;56315;-33.902;151.160;2022-07-25T05:43:49;5.65;;;1.75;;
44646;SDS011;56315;-33.902;151.160;2022-07-25T05:46:17;5.68;;;1.67;;
44646;SDS011;56315;-33.902;151.160;2022-07-25T05:48:44;4.07;;;1.27;;
44646;SDS011;56315;-33.902;151.160;2022-07-25T05:51:11;6.80;;;1.88;;
44646;SDS011;56315;-33.902;151.160;2022-07-25T05:53:39;6.00;;;1.60;;
44646;SDS011;56315;-33.902;151.160;2022-07-25T05:56:08;6.82;;;1.58;;
44646;SDS011;56315;-33.902;151.160;2022-07-25T06:05:19;6.70;;;1.60;;
44646;SDS011;56315;-33.902;151.160;2022-07-25T06:08:41;8.57;;;1.45;;
44646;SDS011;56315;-33.902;151.160;2022-07-25T06:11:09;6.60;;;1.55;;
44646;SDS011;56315;-33.902;151.160;2022-07-25T06:13:36;7.18;;;1.73;;
44646;SDS011;56315;-33.902;151.160;2022-07-25T06:16:04;8.60;;;2.40;;
44646;SDS011;56315;-33.902;151.160;2022-07-25T06:18:31;9.85;;;2.38;;
44646;SDS011;56315;-33.902;151.160;2022-07-25T06:20:59;8.10;;;1.90;;
44646;SDS011;56315;-33.902;151.160;2022-07-25T06:23:26;9.23;;;2.13;;
44646;SDS011;56315;-33.902;151.160;2022-07-25T06:25:54;6.60;;;1.77;;
44646;SDS011;56315;-33.902;151.160;2022-07-25T06:28:21;9.50;;;1.63;;
44646;SDS011;56315;-33.902;151.160;2022-07-25T06:30:48;6.72;;;1.52;;
44646;SDS011;56315;-33.902;151.160;2022-07-25T06:33:16;9.13;;;1.80;;
44646;SDS011;56315;-33.902;151.160;2022-07-25T06:35:43;8.75;;;1.85;;
44646;SDS011;56315;-33.902;151.160;2022-07-25T06:38:10;9.48;;;2.08;;
44646;SDS011;56315;-33.902;151.160;2022-07-25T06:40:38;6.65;;;1.25;;
44646;SDS011;56315;-33.902;151.160;2022-07-25T06:43:05;5.30;;;1.50;;
44646;SDS011;56315;-33.902;151.160;2022-07-25T06:45:32;6.55;;;1.40;;
44646;SDS011;56315;-33.902;151.160;2022-07-25T06:48:00;3.50;;;1.40;;
44646;SDS011;56315;-33.902;151.160;2022-07-25T06:50:27;5.28;;;1.52;;
44646;SDS011;56315;-33.902;151.160;2022-07-25T06:52:55;4.88;;;1.10;;
44646;SDS011;56315;-33.902;151.160;2022-07-25T07:00:13;6.03;;;1.10;;
44646;SDS011;56315;-33.902;151.160;2022-07-25T07:02:48;5.55;;;1.25;;
44646;SDS011;56315;-33.902;151.160;2022-07-25T07:05:17;7.13;;;1.80;;
44646;SDS011;56315;-33.902;151.160;2022-07-25T07:07:45;10.88;;;1.58;;
44646;SDS011;56315;-33.902;151.160;2022-07-25T07:10:13;7.55;;;2.22;;
44646;SDS011;56315;-33.902;151.160;2022-07-25T07:12:40;5.32;;;1.52;;
44646;SDS011;56315;-33.902;151.160;2022-07-25T07:15:51;4.68;;;1.50;;
44646;SDS011;56315;-33.902;151.160;2022-07-25T07:18:18;6.20;;;1.90;;
44646;SDS011;56315;-33.902;151.160;2022-07-25T07:20:46;5.78;;;2.25;;
44646;SDS011;56315;-33.902;151.160;2022-07-25T07:23:14;6.28;;;2.08;;
44646;SDS011;56315;-33.902;151.160;2022-07-25T07:25:41;6.45;;;1.85;;
44646;SDS011;56315;-33.902;151.160;2022-07-25T07:28:10;7.85;;;1.70;;
44646;SDS011;56315;-33.902;151.160;2022-07-25T07:30:37;5.57;;;1.77;;
44646;SDS011;56315;-33.902;151.160;2022-07-25T07:33:05;5.00;;;1.92;;
44646;SDS011;56315;-33.902;151.160;2022-07-25T07:35:32;10.20;;;2.08;;
44646;SDS011;56315;-33.902;151.160;2022-07-25T07:37:59;7.82;;;1.85;;
44646;SDS011;56315;-33.902;151.160;2022-07-25T07:40:27;4.78;;;1.95;;
44646;SDS011;56315;-33.902;151.160;2022-07-25T07:42:54;5.80;;;1.90;;
44646;SDS011;56315;-33.902;151.160;2022-07-25T07:45:25;6.18;;;2.15;;
44646;SDS011;56315;-33.902;151.160;2022-07-25T07:47:53;5.88;;;1.83;;
44646;SDS011;56315;-33.902;151.160;2022-07-25T07:50:24;10.55;;;2.17;;
44646;SDS011;56315;-33.902;151.160;2022-07-25T07:52:53;6.60;;;2.47;;
44646;SDS011;56315;-33.902;151.160;2022-07-25T07:55:21;6.25;;;1.73;;
44646;SDS011;56315;-33.902;151.160;2022-07-25T07:58:07;8.40;;;2.25;;
44646;SDS011;56315;-33.902;151.160;2022-07-25T08:00:34;4.65;;;1.98;;
44646;SDS011;56315;-33.902;151.160;2022-07-25T08:03:04;6.40;;;2.42;;
44646;SDS011;56315;-33.902;151.160;2022-07-25T08:05:36;4.25;;;2.10;;
44646;SDS011;56315;-33.902;151.160;2022-07-25T08:08:06;11.15;;;2.60;;
44646;SDS011;56315;-33.902;151.160;2022-07-25T08:10:36;9.45;;;2.75;;
44646;SDS011;56315;-33.902;151.160;2022-07-25T08:15:45;8.07;;;2.33;;
44646;SDS011;56315;-33.902;151.160;2022-07-25T08:18:15;8.30;;;2.10;;
44646;SDS011;56315;-33.902;151.160;2022-07-25T08:20:46;7.43;;;2.60;;
44646;SDS011;56315;-33.902;151.160;2022-07-25T08:23:15;11.40;;;3.30;;
44646;SDS011;56315;-33.902;151.160;2022-07-25T08:25:43;6.50;;;2.30;;
44646;SDS011;56315;-33.902;151.160;2022-07-25T08:28:11;9.38;;;3.38;;
44646;SDS011;56315;-33.902;151.160;2022-07-25T08:30:40;9.57;;;2.45;;
44646;SDS011;56315;-33.902;151.160;2022-07-25T08:33:08;8.80;;;2.55;;
44646;SDS011;56315;-33.902;151.160;2022-07-25T08:35:46;8.02;;;2.13;;
44646;SDS011;56315;-33.902;151.160;2022-07-25T08:38:16;11.00;;;2.75;;
44646;SDS011;56315;-33.902;151.160;2022-07-25T08:40:44;11.05;;;2.95;;
44646;SDS011;56315;-33.902;151.160;2022-07-25T08:43:12;9.45;;;2.92;;
44646;SDS011;56315;-33.902;151.160;2022-07-25T08:45:44;8.23;;;2.30;;
44646;SDS011;56315;-33.902;151.160;2022-07-25T08:48:15;9.40;;;3.08;;
44646;SDS011;56315;-33.902;151.160;2022-07-25T08:50:44;14.30;;;3.72;;
44646;SDS011;56315;-33.902;151.160;2022-07-25T08:53:14;10.07;;;3.35;;
44646;SDS011;56315;-33.902;151.160;2022-07-25T08:55:43;8.38;;;2.75;;
44646;SDS011;56315;-33.902;151.160;2022-07-25T08:58:11;8.48;;;3.78;;
44646;SDS011;56315;-33.902;151.160;2022-07-25T09:00:40;11.82;;;4.07;;
44646;SDS011;56315;-33.902;151.160;2022-07-25T09:03:08;12.90;;;3.72;;
44646;SDS011;56315;-33.902;151.160;2022-07-25T09:05:37;11.75;;;3.92;;
44646;SDS011;56315;-33.902;151.160;2022-07-25T09:08:08;14.25;;;4.20;;
44646;SDS011;56315;-33.902;151.160;2022-07-25T09:10:48;11.68;;;3.47;;
44646;SDS011;56315;-33.902;151.160;2022-07-25T09:13:18;11.90;;;3.60;;
44646;SDS011;56315;-33.902;151.160;2022-07-25T09:15:49;15.18;;;4.10;;
44646;SDS011;56315;-33.902;151.160;2022-07-25T09:18:22;20.45;;;5.82;;
44646;SDS011;56315;-33.902;151.160;2022-07-25T09:20:51;16.17;;;3.90;;
44646;SDS011;56315;-33.902;151.160;2022-07-25T09:23:30;12.60;;;3.70;;
44646;SDS011;56315;-33.902;151.160;2022-07-25T09:28:44;15.13;;;4.32;;
44646;SDS011;56315;-33.902;151.160;2022-07-25T09:31:13;14.18;;;4.45;;
44646;SDS011;56315;-33.902;151.160;2022-07-25T09:33:45;13.20;;;4.90;;
44646;SDS011;56315;-33.902;151.160;2022-07-25T09:36:17;20.40;;;5.45;;
44646;SDS011;56315;-33.902;151.160;2022-07-25T09:38:54;13.82;;;4.80;;
44646;SDS011;56315;-33.902;151.160;2022-07-25T09:41:33;14.02;;;4.88;;
44646;SDS011;56315;-33.902;151.160;2022-07-25T09:44:18;19.33;;;5.03;;
44646;SDS011;56315;-33.902;151.160;2022-07-25T09:46:57;11.13;;;3.85;;
44646;SDS011;56315;-33.902;151.160;2022-07-25T09:49:41;15.82;;;4.78;;
44646;SDS011;56315;-33.902;151.160;2022-07-25T09:52:10;17.15;;;5.22;;
44646;SDS011;56315;-33.902;151.160;2022-07-25T09:54:39;14.40;;;5.15;;
44646;SDS011;56315;-33.902;151.160;2022-07-25T09:57:06;14.18;;;5.32;;
44646;SDS011;56315;-33.902;151.160;2022-07-25T09:59:34;10.40;;;4.05;;
44646;SDS011;56315;-33.902;151.160;2022-07-25T10:07:39;15.13;;;4.88;;
44646;SDS011;56315;-33.902;151.160;2022-07-25T10:13:11;18.92;;;6.05;;
44646;SDS011;56315;-33.902;151.160;2022-07-25T10:15:49;10.60;;;5.07;;
44646;SDS011;56315;-33.902;151.160;2022-07-25T10:18:18;14.32;;;4.82;;
44646;SDS011;56315;-33.902;151.160;2022-07-25T10:20:48;14.68;;;5.53;;
44646;SDS011;56315;-33.902;151.160;2022-07-25T10:23:18;14.77;;;7.15;;
44646;SDS011;56315;-33.902;151.160;2022-07-25T10:26:12;19.67;;;9.75;;
44646;SDS011;56315;-33.902;151.160;2022-07-25T10:28:45;15.85;;;10.25;;
44646;SDS011;56315;-33.902;151.160;2022-07-25T10:31:14;14.20;;;8.68;;
44646;SDS011;56315;-33.902;151.160;2022-07-25T10:33:58;16.60;;;9.10;;
44646;SDS011;56315;-33.902;151.160;2022-07-25T10:36:48;17.27;;;8.55;;
44646;SDS011;56315;-33.902;151.160;2022-07-25T10:39:20;13.88;;;5.78;;
44646;SDS011;56315;-33.902;151.160;2022-07-25T10:41:54;12.57;;;5.65;;
44646;SDS011;56315;-33.902;151.160;2022-07-25T10:44:28;10.25;;;4.43;;
44646;SDS011;56315;-33.902;151.160;2022-07-25T10:47:10;11.38;;;4.80;;
44646;SDS011;56315;-33.902;151.160;2022-07-25T10:49:39;10.35;;;4.07;;
44646;SDS011;56315;-33.902;151.160;2022-07-25T10:52:18;10.02;;;3.85;;
44646;SDS011;56315;-33.902;151.160;2022-07-25T10:54:56;7.10;;;3.28;;
44646;SDS011;56315;-33.902;151.160;2022-07-25T10:57:25;9.45;;;3.28;;
44646;SDS011;56315;-33.902;151.160;2022-07-25T10:59:53;12.45;;;4.13;;
44646;SDS011;56315;-33.902;151.160;2022-07-25T11:02:29;10.50;;;4.10;;
44646;SDS011;56315;-33.902;151.160;2022-07-25T11:04:58;8.98;;;3.80;;
44646;SDS011;56315;-33.902;151.160;2022-07-25T11:07:27;11.48;;;3.63;;
44646;SDS011;56315;-33.902;151.160;2022-07-25T11:10:05;11.32;;;3.88;;
44646;SDS011;56315;-33.902;151.160;2022-07-25T11:12:34;9.40;;;3.80;;
44646;SDS011;56315;-33.902;151.160;2022-07-25T11:15:03;9.10;;;4.10;;
44646;SDS011;56315;-33.902;151.160;2022-07-25T11:17:32;8.30;;;3.92;;
44646;SDS011;56315;-33.902;151.160;2022-07-25T11:22:29;7.38;;;4.00;;
44646;SDS011;56315;-33.902;151.160;2022-07-25T11:24:59;8.45;;;3.97;;
44646;SDS011;56315;-33.902;151.160;2022-07-25T11:27:28;10.10;;;3.83;;
44646;SDS011;56315;-33.902;151.160;2022-07-25T11:30:10;12.93;;;4.32;;
44646;SDS011;56315;-33.902;151.160;2022-07-25T11:32:45;7.00;;;3.80;;
44646;SDS011;56315;-33.902;151.160;2022-07-25T11:35:21;10.07;;;3.58;;
44646;SDS011;56315;-33.902;151.160;2022-07-25T11:37:52;8.10;;;3.60;;
44646;SDS011;56315;-33.902;151.160;2022-07-25T11:40:20;8.02;;;3.65;;
44646;SDS011;56315;-33.902;151.160;2022-07-25T11:45:26;9.25;;;3.20;;
44646;SDS011;56315;-33.902;151.160;2022-07-25T11:48:02;8.80;;;4.20;;
44646;SDS011;56315;-33.902;151.160;2022-07-25T11:50:34;15.50;;;8.05;;
44646;SDS011;56315;-33.902;151.160;2022-07-25T11:53:04;19.02;;;11.70;;
44646;SDS011;56315;-33.902;151.160;2022-07-25T11:55:34;18.58;;;11.85;;
44646;SDS011;56315;-33.902;151.160;2022-07-25T11:58:05;20.67;;;14.43;;
44646;SDS011;56315;-33.902;151.160;2022-07-25T12:00:33;19.67;;;13.50;;
44646;SDS011;56315;-33.902;151.160;2022-07-25T12:03:06;13.18;;;7.47;;
44646;SDS011;56315;-33.902;151.160;2022-07-25T12:05:41;9.13;;;4.93;;
44646;SDS011;56315;-33.902;151.160;2022-07-25T12:10:44;8.43;;;4.28;;
44646;SDS011;56315;-33.902;151.160;2022-07-25T12:13:23;8.45;;;4.28;;
44646;SDS011;56315;-33.902;151.160;2022-07-25T12:15:54;7.85;;;3.47;;
44646;SDS011;56315;-33.902;151.160;2022-07-25T12:18:23;5.55;;;3.45;;
44646;SDS011;56315;-33.902;151.160;2022-07-25T12:20:51;7.95;;;3.67;;
44646;SDS011;56315;-33.902;151.160;2022-07-25T12:23:18;6.03;;;3.22;;
44646;SDS011;56315;-33.902;151.160;2022-07-25T12:25:46;7.57;;;3.92;;
44646;SDS011;56315;-33.902;151.160;2022-07-25T12:28:14;8.80;;;4.07;;
44646;SDS011;56315;-33.902;151.160;2022-07-25T12:30:43;7.88;;;3.67;;
44646;SDS011;56315;-33.902;151.160;2022-07-25T12:33:11;7.85;;;4.10;;
44646;SDS011;56315;-33.902;151.160;2022-07-25T12:35:39;7.65;;;3.60;;
44646;SDS011;56315;-33.902;151.160;2022-07-25T12:38:07;12.98;;;4.20;;
44646;SDS011;56315;-33.902;151.160;2022-07-25T12:40:35;6.85;;;4.43;;
44646;SDS011;56315;-33.902;151.160;2022-07-25T12:43:03;10.25;;;4.47;;
44646;SDS011;56315;-33.902;151.160;2022-07-25T12:45:31;5.85;;;3.47;;
44646;SDS011;56315;-33.902;151.160;2022-07-25T12:47:58;8.25;;;3.42;;
44646;SDS011;56315;-33.902;151.160;2022-07-25T12:50:25;8.18;;;3.90;;
44646;SDS011;56315;-33.902;151.160;2022-07-25T12:52:53;8.98;;;3.97;;
44646;SDS011;56315;-33.902;151.160;2022-07-25T12:55:20;4.50;;;3.45;;
44646;SDS011;56315;-33.902;151.160;2022-07-25T12:57:48;6.63;;;4.00;;
44646;SDS011;56315;-33.902;151.160;2022-07-25T13:00:17;5.30;;;3.92;;
44646;SDS011;56315;-33.902;151.160;2022-07-25T13:02:47;8.15;;;4.85;;
44646;SDS011;56315;-33.902;151.160;2022-07-25T13:05:20;10.63;;;5.07;;
44646;SDS011;56315;-33.902;151.160;2022-07-25T13:07:48;7.28;;;3.88;;
44646;SDS011;56315;-33.902;151.160;2022-07-25T13:10:16;7.78;;;3.83;;
44646;SDS011;56315;-33.902;151.160;2022-07-25T13:12:44;5.88;;;3.30;;
44646;SDS011;56315;-33.902;151.160;2022-07-25T13:15:12;5.85;;;3.47;;
44646;SDS011;56315;-33.902;151.160;2022-07-25T13:17:39;7.95;;;4.50;;
44646;SDS011;56315;-33.902;151.160;2022-07-25T13:20:07;14.52;;;4.35;;
44646;SDS011;56315;-33.902;151.160;2022-07-25T13:22:35;10.00;;;5.00;;
44646;SDS011;56315;-33.902;151.160;2022-07-25T13:25:02;9.73;;;4.97;;
44646;SDS011;56315;-33.902;151.160;2022-07-25T13:27:30;8.55;;;5.05;;
44646;SDS011;56315;-33.902;151.160;2022-07-25T13:29:57;8.13;;;4.85;;
44646;SDS011;56315;-33.902;151.160;2022-07-25T13:32:24;7.32;;;5.03;;
44646;SDS011;56315;-33.902;151.160;2022-07-25T13:34:53;9.93;;;5.30;;
44646;SDS011;56315;-33.902;151.160;2022-07-25T13:37:20;9.38;;;4.95;;
44646;SDS011;56315;-33.902;151.160;2022-07-25T13:39:47;10.27;;;4.78;;
44646;SDS011;56315;-33.902;151.160;2022-07-25T13:42:15;9.70;;;4.47;;
44646;SDS011;56315;-33.902;151.160;2022-07-25T13:44:43;8.52;;;4.65;;
44646;SDS011;56315;-33.902;151.160;2022-07-25T13:47:10;7.57;;;4.43;;
44646;SDS011;56315;-33.902;151.160;2022-07-25T13:49:37;9.43;;;5.30;;
44646;SDS011;56315;-33.902;151.160;2022-07-25T13:52:05;7.95;;;4.95;;
44646;SDS011;56315;-33.902;151.160;2022-07-25T13:54:33;12.07;;;6.32;;
44646;SDS011;56315;-33.902;151.160;2022-07-25T13:57:01;10.20;;;5.90;;
44646;SDS011;56315;-33.902;151.160;2022-07-25T13:59:29;7.40;;;4.80;;
44646;SDS011;56315;-33.902;151.160;2022-07-25T14:01:56;8.63;;;3.85;;
44646;SDS011;56315;-33.902;151.160;2022-07-25T14:04:23;8.38;;;3.95;;
44646;SDS011;56315;-33.902;151.160;2022-07-25T14:06:51;10.10;;;5.00;;
44646;SDS011;56315;-33.902;151.160;2022-07-25T14:09:19;5.88;;;4.18;;
44646;SDS011;56315;-33.902;151.160;2022-07-25T14:11:47;6.25;;;3.83;;
44646;SDS011;56315;-33.902;151.160;2022-07-25T14:14:14;8.82;;;4.05;;
44646;SDS011;56315;-33.902;151.160;2022-07-25T14:16:42;11.55;;;4.30;;
44646;SDS011;56315;-33.902;151.160;2022-07-25T14:19:09;6.65;;;4.13;;
44646;SDS011;56315;-33.902;151.160;2022-07-25T14:21:37;5.82;;;3.90;;
44646;SDS011;56315;-33.902;151.160;2022-07-25T14:24:04;6.00;;;3.83;;
44646;SDS011;56315;-33.902;151.160;2022-07-25T14:26:32;7.43;;;4.07;;
44646;SDS011;56315;-33.902;151.160;2022-07-25T14:29:00;5.85;;;3.85;;
44646;SDS011;56315;-33.902;151.160;2022-07-25T14:31:28;8.10;;;4.72;;
44646;SDS011;56315;-33.902;151.160;2022-07-25T14:33:57;5.93;;;3.40;;
44646;SDS011;56315;-33.902;151.160;2022-07-25T14:36:24;5.68;;;3.95;;
44646;SDS011;56315;-33.902;151.160;2022-07-25T14:38:52;8.57;;;3.70;;
44646;SDS011;56315;-33.902;151.160;2022-07-25T14:41:19;8.95;;;4.03;;
44646;SDS011;56315;-33.902;151.160;2022-07-25T14:43:47;5.22;;;3.60;;
44646;SDS011;56315;-33.902;151.160;2022-07-25T14:46:14;6.90;;;3.80;;
44646;SDS011;56315;-33.902;151.160;2022-07-25T14:48:41;6.93;;;4.45;;
44646;SDS011;56315;-33.902;151.160;2022-07-25T14:51:09;7.00;;;4.53;;